createdAt,value
2018-03-21T00:00:13.184Z,-3.09
2018-03-21T00:01:13.334Z,-3.12
2018-03-21T00:02:13.484Z,-3.18
2018-03-21T00:03:13.634Z,-3.18
2018-03-21T00:04:13.785Z,-3.10
2018-03-21T00:05:13.945Z,-3.18
2018-03-21T00:06:14.095Z,-3.18
2018-03-21T00:07:14.829Z,-3.20
2018-03-21T00:08:14.346Z,-3.18
2018-03-21T00:09:14.496Z,-3.30
2018-03-21T00:10:14.648Z,-3.27
2018-03-21T00:11:14.794Z,-3.23
2018-03-21T00:12:14.997Z,-3.24
2018-03-21T00:13:15.100Z,-3.25
2018-03-21T00:14:15.249Z,-3.23
2018-03-21T00:15:15.401Z,-3.14
2018-03-21T00:16:15.548Z,-3.25
2018-03-21T00:17:15.701Z,-3.18
2018-03-21T00:18:15.852Z,-3.28
2018-03-21T00:19:16.001Z,-3.20
2018-03-21T00:20:16.210Z,-3.17
2018-03-21T00:21:16.298Z,-3.20
2018-03-21T00:22:16.458Z,-3.20
2018-03-21T00:23:16.609Z,-3.23
2018-03-21T00:24:16.766Z,-3.24
2018-03-21T00:25:16.918Z,-3.27
2018-03-21T00:26:17.069Z,-3.31
2018-03-21T00:27:17.225Z,-3.24
2018-03-21T00:28:17.373Z,-3.33
2018-03-21T00:29:17.528Z,-3.43
2018-03-21T00:30:17.676Z,-3.56
2018-03-21T00:31:17.825Z,-3.59
2018-03-21T00:32:17.979Z,-3.71
2018-03-21T00:33:18.131Z,-3.64
2018-03-21T00:34:18.280Z,-3.56
2018-03-21T00:35:18.430Z,-3.64
2018-03-21T00:36:18.579Z,-3.56
2018-03-21T00:37:18.732Z,-3.59
2018-03-21T00:38:18.879Z,-3.62
2018-03-21T00:39:19.031Z,-3.57
2018-03-21T00:40:19.183Z,-3.54
2018-03-21T00:41:19.336Z,-3.56
2018-03-21T00:42:19.484Z,-3.60
2018-03-21T00:43:19.631Z,-3.60
2018-03-21T00:44:19.784Z,-3.67
2018-03-21T00:45:19.934Z,-3.76
2018-03-21T00:46:20.084Z,-3.75
2018-03-21T00:47:20.236Z,-3.60
2018-03-21T00:48:20.383Z,-3.71
2018-03-21T00:49:20.539Z,-3.62
2018-03-21T00:50:20.686Z,-3.72
2018-03-21T00:51:20.836Z,-3.69
2018-03-21T00:52:20.989Z,-3.76
2018-03-21T00:53:21.142Z,-3.79
2018-03-21T00:54:21.283Z,-3.81
2018-03-21T00:55:21.433Z,-3.71
2018-03-21T00:56:21.584Z,-3.75
2018-03-21T00:57:21.741Z,-3.79
2018-03-21T00:58:21.891Z,-3.78
2018-03-21T00:59:22.040Z,-3.85
2018-03-21T01:00:22.191Z,-3.83
2018-03-21T01:01:22.341Z,-3.94
2018-03-21T01:02:22.493Z,-3.93
2018-03-21T01:03:22.650Z,-3.88
2018-03-21T01:04:22.788Z,-3.96
2018-03-21T01:05:22.938Z,-4.04
2018-03-21T01:06:23.088Z,-4.07
2018-03-21T01:07:23.247Z,-4.07
2018-03-21T01:08:23.393Z,-4.11
2018-03-21T01:09:23.546Z,-4.04
2018-03-21T01:10:23.694Z,-4.06
2018-03-21T01:11:23.864Z,-4.03
2018-03-21T01:12:23.998Z,-4.06
2018-03-21T01:13:24.152Z,-4.04
2018-03-21T01:14:24.298Z,-4.10
2018-03-21T01:15:24.448Z,-3.97
2018-03-21T01:16:24.597Z,-3.91
2018-03-21T01:17:24.753Z,-3.88
2018-03-21T01:18:24.899Z,-3.94
2018-03-21T01:19:25.055Z,-3.97
2018-03-21T01:20:25.202Z,-4.01
2018-03-21T01:21:25.352Z,-3.96
2018-03-21T01:22:25.503Z,-3.99
2018-03-21T01:23:25.651Z,-4.03
2018-03-21T01:24:25.810Z,-4.00
2018-03-21T01:25:25.948Z,-4.15
2018-03-21T01:26:26.098Z,-4.15
2018-03-21T01:27:26.254Z,-4.18
2018-03-21T01:28:26.399Z,-4.17
2018-03-21T01:29:26.551Z,-4.25
2018-03-21T01:30:26.701Z,-4.17
2018-03-21T01:31:26.850Z,-4.14
2018-03-21T01:32:27.006Z,-4.07
2018-03-21T01:33:27.152Z,-4.20
2018-03-21T01:34:27.303Z,-4.10
2018-03-21T01:35:27.454Z,-4.10
2018-03-21T01:36:27.607Z,-4.12
2018-03-21T01:37:27.760Z,-4.10
2018-03-21T01:38:27.909Z,-4.10
2018-03-21T01:39:28.054Z,-4.11
2018-03-21T01:40:28.204Z,-4.04
2018-03-21T01:41:28.372Z,-4.01
2018-03-21T01:42:28.511Z,-4.11
2018-03-21T01:43:28.658Z,-4.00
2018-03-21T01:44:28.812Z,-4.07
2018-03-21T01:45:28.960Z,-4.01
2018-03-21T01:46:29.110Z,-3.97
2018-03-21T01:47:29.267Z,-3.96
2018-03-21T01:48:29.416Z,-3.94
2018-03-21T01:49:29.566Z,-3.99
2018-03-21T01:50:29.723Z,-4.07
2018-03-21T01:51:29.865Z,-4.00
2018-03-21T01:52:30.017Z,-3.99
2018-03-21T01:53:30.171Z,-4.03
2018-03-21T01:54:30.316Z,-3.99
2018-03-21T01:55:30.467Z,-4.04
2018-03-21T01:56:30.616Z,-4.12
2018-03-21T01:57:30.770Z,-4.15
2018-03-21T01:58:30.922Z,-4.22
2018-03-21T01:59:31.070Z,-4.25
2018-03-21T02:00:31.219Z,-4.20
2018-03-21T02:01:31.381Z,-4.17
2018-03-21T02:02:31.518Z,-4.18
2018-03-21T02:03:31.668Z,-4.10
2018-03-21T02:04:31.814Z,-4.15
2018-03-21T02:05:31.964Z,-4.22
2018-03-21T02:06:32.113Z,-4.04
2018-03-21T02:07:32.263Z,-4.04
2018-03-21T02:08:32.419Z,-4.04
2018-03-21T02:09:32.559Z,-4.06
2018-03-21T02:10:32.715Z,-4.11
2018-03-21T02:11:32.862Z,-4.12
2018-03-21T02:12:33.000Z,-4.14
2018-03-21T02:13:33.149Z,-4.20
2018-03-21T02:14:33.303Z,-4.17
2018-03-21T02:15:33.457Z,-4.21
2018-03-21T02:16:33.607Z,-4.22
2018-03-21T02:17:33.748Z,-4.22
2018-03-21T02:18:33.894Z,-4.24
2018-03-21T02:19:34.047Z,-4.22
2018-03-21T02:20:34.192Z,-4.21
2018-03-21T02:21:34.343Z,-4.28
2018-03-21T02:22:34.491Z,-4.25
2018-03-21T02:23:34.643Z,-4.29
2018-03-21T02:24:34.788Z,-4.25
2018-03-21T02:25:34.942Z,-4.33
2018-03-21T02:26:35.092Z,-4.36
2018-03-21T02:27:35.241Z,-4.35
2018-03-21T02:28:35.394Z,-4.49
2018-03-21T02:29:35.542Z,-4.49
2018-03-21T02:30:35.693Z,-4.50
2018-03-21T02:31:35.842Z,-4.47
2018-03-21T02:32:35.993Z,-4.50
2018-03-21T02:33:36.148Z,-4.60
2018-03-21T02:34:36.295Z,-4.56
2018-03-21T02:35:36.494Z,-4.51
2018-03-21T02:36:36.595Z,-4.63
2018-03-21T02:37:36.747Z,-4.69
2018-03-21T02:38:36.905Z,-4.60
2018-03-21T02:39:37.048Z,-4.58
2018-03-21T02:40:37.198Z,-4.65
2018-03-21T02:41:37.347Z,-4.63
2018-03-21T02:42:37.498Z,-4.50
2018-03-21T02:43:37.669Z,-4.49
2018-03-21T02:44:37.804Z,-4.51
2018-03-21T02:45:37.953Z,-4.46
2018-03-21T02:46:38.102Z,-4.47
2018-03-21T02:47:38.252Z,-4.54
2018-03-21T02:48:38.406Z,-4.43
2018-03-21T02:49:38.550Z,-4.57
2018-03-21T02:50:38.706Z,-4.50
2018-03-21T02:51:38.855Z,-4.49
2018-03-21T02:52:39.005Z,-4.50
2018-03-21T02:53:39.159Z,-4.47
2018-03-21T02:54:39.302Z,-4.53
2018-03-21T02:55:39.454Z,-4.47
2018-03-21T02:56:39.604Z,-4.53
2018-03-21T02:57:39.754Z,-4.54
2018-03-21T02:58:39.912Z,-4.63
2018-03-21T02:59:40.058Z,-4.63
2018-03-21T03:00:40.208Z,-4.68
2018-03-21T03:01:40.357Z,-4.65
2018-03-21T03:02:40.505Z,-4.60
2018-03-21T03:03:40.663Z,-4.53
2018-03-21T03:04:40.822Z,-4.60
2018-03-21T03:05:40.972Z,-4.54
2018-03-21T03:06:41.115Z,-4.60
2018-03-21T03:07:41.262Z,-4.54
2018-03-21T03:08:41.412Z,-4.69
2018-03-21T03:09:41.558Z,-4.63
2018-03-21T03:10:41.713Z,-4.63
2018-03-21T03:11:41.857Z,-4.81
2018-03-21T03:12:42.012Z,-4.68
2018-03-21T03:13:42.163Z,-4.68
2018-03-21T03:14:42.310Z,-4.60
2018-03-21T03:15:42.457Z,-4.50
2018-03-21T03:16:42.608Z,-4.54
2018-03-21T03:17:42.753Z,-4.56
2018-03-21T03:18:42.905Z,-4.53
2018-03-21T03:19:43.063Z,-4.49
2018-03-21T03:20:43.202Z,-4.49
2018-03-21T03:21:43.351Z,-4.49
2018-03-21T03:22:43.497Z,-4.46
2018-03-21T03:23:43.649Z,-4.60
2018-03-21T03:24:43.798Z,-4.72
2018-03-21T03:25:43.947Z,-4.67
2018-03-21T03:26:44.101Z,-4.78
2018-03-21T03:27:44.249Z,-4.77
2018-03-21T03:28:44.398Z,-4.78
2018-03-21T03:29:44.549Z,-4.83
2018-03-21T03:30:44.701Z,-4.79
2018-03-21T03:31:44.854Z,-4.77
2018-03-21T03:32:45.003Z,-4.85
2018-03-21T03:33:45.152Z,-4.78
2018-03-21T03:34:45.301Z,-4.86
2018-03-21T03:35:45.451Z,-4.92
2018-03-21T03:36:45.604Z,-5.00
2018-03-21T03:37:45.750Z,-4.97
2018-03-21T03:38:45.902Z,-4.97
2018-03-21T03:39:46.050Z,-4.97
2018-03-21T03:40:46.200Z,-4.95
2018-03-21T03:41:46.355Z,-4.97
2018-03-21T03:42:46.501Z,-5.13
2018-03-21T03:43:46.644Z,-5.08
2018-03-21T03:44:46.797Z,-4.96
2018-03-21T03:45:46.940Z,-5.00
2018-03-21T03:46:47.092Z,-5.17
2018-03-21T03:47:47.239Z,-5.29
2018-03-21T03:48:47.391Z,-5.47
2018-03-21T03:49:47.541Z,-5.50
2018-03-21T03:50:47.690Z,-5.47
2018-03-21T03:51:47.839Z,-5.51
2018-03-21T03:52:47.989Z,-5.37
2018-03-21T03:53:48.139Z,-5.33
2018-03-21T03:54:48.293Z,-5.41
2018-03-21T03:55:48.442Z,-5.36
2018-03-21T03:56:48.591Z,-5.30
2018-03-21T03:57:48.739Z,-5.29
2018-03-21T03:58:48.896Z,-5.26
2018-03-21T03:59:49.047Z,-5.25
2018-03-21T04:00:49.195Z,-5.26
2018-03-21T04:01:49.352Z,-5.25
2018-03-21T04:02:49.493Z,-5.29
2018-03-21T04:03:49.643Z,-5.25
2018-03-21T04:04:49.800Z,-5.14
2018-03-21T04:05:49.953Z,-5.10
2018-03-21T04:06:50.100Z,-5.08
2018-03-21T04:07:50.251Z,-5.08
2018-03-21T04:08:50.395Z,-5.11
2018-03-21T04:09:50.551Z,-5.19
2018-03-21T04:10:50.699Z,-5.10
2018-03-21T04:11:50.853Z,-5.10
2018-03-21T04:12:50.998Z,-5.08
2018-03-21T04:13:51.147Z,-5.08
2018-03-21T04:14:51.305Z,-5.11
2018-03-21T04:15:51.453Z,-5.13
2018-03-21T04:16:51.602Z,-5.11
2018-03-21T04:17:51.752Z,-5.17
2018-03-21T04:18:51.900Z,-5.19
2018-03-21T04:19:52.056Z,-5.22
2018-03-21T04:20:52.204Z,-5.17
2018-03-21T04:21:52.348Z,-5.13
2018-03-21T04:22:52.497Z,-5.06
2018-03-21T04:23:52.647Z,-5.25
2018-03-21T04:24:52.795Z,-5.11
2018-03-21T04:25:52.942Z,-5.13
2018-03-21T04:26:53.088Z,-5.17
2018-03-21T04:27:53.239Z,-5.07
2018-03-21T04:28:53.385Z,-5.08
2018-03-21T04:29:53.537Z,-5.07
2018-03-21T04:30:53.685Z,-5.13
2018-03-21T04:31:53.834Z,-5.11
2018-03-21T04:32:54.008Z,-5.10
2018-03-21T04:33:54.152Z,-5.07
2018-03-21T04:34:54.311Z,-5.25
2018-03-21T04:35:54.463Z,-5.17
2018-03-21T04:36:54.604Z,-5.14
2018-03-21T04:37:54.753Z,-5.19
2018-03-21T04:38:54.901Z,-5.19
2018-03-21T04:39:55.036Z,-5.18
2018-03-21T04:40:55.185Z,-5.29
2018-03-21T04:41:55.336Z,-5.41
2018-03-21T04:42:55.482Z,-5.32
2018-03-21T04:43:55.631Z,-5.30
2018-03-21T04:44:55.777Z,-5.39
2018-03-21T04:45:55.953Z,-5.39
2018-03-21T04:46:56.072Z,-5.36
2018-03-21T04:47:56.212Z,-5.51
2018-03-21T04:48:56.375Z,-5.41
2018-03-21T04:49:56.524Z,-5.51
2018-03-21T04:50:56.679Z,-5.55
2018-03-21T04:51:56.826Z,-5.46
2018-03-21T04:52:56.977Z,-5.43
2018-03-21T04:53:57.126Z,-5.47
2018-03-21T04:54:57.277Z,-5.48
2018-03-21T04:55:57.430Z,-5.47
2018-03-21T04:56:57.576Z,-5.51
2018-03-21T04:57:57.727Z,-5.39
2018-03-21T04:58:57.877Z,-5.46
2018-03-21T04:59:58.025Z,-5.48
2018-03-21T05:00:58.182Z,-5.37
2018-03-21T05:01:58.375Z,-5.44
2018-03-21T05:02:58.480Z,-5.44
2018-03-21T05:03:58.628Z,-5.43
2018-03-21T05:04:58.778Z,-5.39
2018-03-21T05:05:58.936Z,-5.41
2018-03-21T05:06:59.082Z,-5.41
2018-03-21T05:07:59.235Z,-5.54
2018-03-21T05:08:59.381Z,-5.48
2018-03-21T05:09:59.530Z,-5.50
2018-03-21T05:10:59.689Z,-5.57
2018-03-21T05:11:59.833Z,-5.54
2018-03-21T05:12:59.984Z,-5.55
2018-03-21T05:14:00.136Z,-5.50
2018-03-21T05:15:00.280Z,-5.61
2018-03-21T05:16:00.422Z,-5.53
2018-03-21T05:17:00.574Z,-5.50
2018-03-21T05:18:01.032Z,-5.47
2018-03-21T05:19:01.232Z,-5.43
2018-03-21T05:20:01.021Z,-5.44
2018-03-21T05:21:01.171Z,-5.50
2018-03-21T05:22:01.323Z,-5.57
2018-03-21T05:23:01.467Z,-5.55
2018-03-21T05:24:01.627Z,-5.61
2018-03-21T05:25:01.774Z,-5.50
2018-03-21T05:26:01.924Z,-5.61
2018-03-21T05:27:02.076Z,-5.51
2018-03-21T05:28:02.221Z,-5.48
2018-03-21T05:29:02.378Z,-5.57
2018-03-21T05:30:02.526Z,-5.47
2018-03-21T05:31:02.674Z,-5.50
2018-03-21T05:32:02.823Z,-5.47
2018-03-21T05:33:02.973Z,-5.47
2018-03-21T05:34:03.129Z,-5.53
2018-03-21T05:35:03.275Z,-5.46
2018-03-21T05:36:03.428Z,-5.48
2018-03-21T05:37:03.597Z,-5.48
2018-03-21T05:38:03.737Z,-5.44
2018-03-21T05:39:03.887Z,-5.50
2018-03-21T05:40:04.032Z,-5.53
2018-03-21T05:41:04.186Z,-5.46
2018-03-21T05:42:04.332Z,-5.39
2018-03-21T05:43:04.481Z,-5.48
2018-03-21T05:44:04.640Z,-5.33
2018-03-21T05:45:04.788Z,-5.36
2018-03-21T05:46:04.937Z,-5.43
2018-03-21T05:47:05.088Z,-5.37
2018-03-21T05:48:05.285Z,-5.50
2018-03-21T05:49:05.385Z,-5.47
2018-03-21T05:50:05.534Z,-5.57
2018-03-21T05:51:05.688Z,-5.50
2018-03-21T05:52:05.837Z,-5.46
2018-03-21T05:53:05.985Z,-5.43
2018-03-21T05:54:06.143Z,-5.30
2018-03-21T05:55:06.288Z,-5.30
2018-03-21T05:56:06.441Z,-5.33
2018-03-21T05:57:06.590Z,-5.39
2018-03-21T05:58:06.738Z,-5.36
2018-03-21T05:59:06.892Z,-5.36
2018-03-21T06:00:07.043Z,-5.33
2018-03-21T06:01:07.184Z,-5.32
2018-03-21T06:02:07.331Z,-5.32
2018-03-21T06:03:07.480Z,-5.27
2018-03-21T06:04:07.629Z,-5.30
2018-03-21T06:05:07.781Z,-5.35
2018-03-21T06:06:07.926Z,-5.33
2018-03-21T06:07:08.077Z,-5.27
2018-03-21T06:08:08.226Z,-5.23
2018-03-21T06:09:08.369Z,-5.23
2018-03-21T06:10:08.519Z,-5.22
2018-03-21T06:11:08.666Z,-5.14
2018-03-21T06:12:08.826Z,-5.08
2018-03-21T06:13:08.976Z,-5.10
2018-03-21T06:14:09.123Z,-5.11
2018-03-21T06:15:09.272Z,-5.03
2018-03-21T06:16:09.420Z,-4.93
2018-03-21T06:17:09.578Z,-5.00
2018-03-21T06:18:09.728Z,-5.06
2018-03-21T06:19:09.876Z,-5.04
2018-03-21T06:20:10.024Z,-4.89
2018-03-21T06:21:10.172Z,-4.92
2018-03-21T06:22:10.330Z,-4.83
2018-03-21T06:23:10.478Z,-4.79
2018-03-21T06:24:10.628Z,-4.74
2018-03-21T06:25:10.779Z,-4.75
2018-03-21T06:26:10.910Z,-4.77
2018-03-21T06:27:11.055Z,-4.67
2018-03-21T06:28:11.209Z,-4.63
2018-03-21T06:29:11.355Z,-4.56
2018-03-21T06:30:11.505Z,-4.49
2018-03-21T06:31:11.659Z,-4.46
2018-03-21T06:32:11.800Z,-4.51
2018-03-21T06:33:11.950Z,-4.51
2018-03-21T06:34:12.100Z,-4.35
2018-03-21T06:35:12.248Z,-4.43
2018-03-21T06:36:12.401Z,-4.24
2018-03-21T06:37:12.547Z,-4.25
2018-03-21T06:38:12.700Z,-4.17
2018-03-21T06:39:12.853Z,-4.22
2018-03-21T06:40:12.998Z,-4.11
2018-03-21T06:41:13.165Z,-4.15
2018-03-21T06:42:13.324Z,-4.06
2018-03-21T06:43:13.461Z,-4.01
2018-03-21T06:44:13.611Z,-3.93
2018-03-21T06:45:13.760Z,-3.85
2018-03-21T06:46:13.917Z,-3.82
2018-03-21T06:47:14.057Z,-3.76
2018-03-21T06:48:14.254Z,-3.79
2018-03-21T06:49:14.357Z,-3.75
2018-03-21T06:50:14.506Z,-3.67
2018-03-21T06:51:14.656Z,-3.60
2018-03-21T06:52:14.807Z,-3.43
2018-03-21T06:53:14.956Z,-3.45
2018-03-21T06:54:15.106Z,-3.41
2018-03-21T06:55:15.254Z,-3.33
2018-03-21T06:56:15.403Z,-3.33
2018-03-21T06:57:15.554Z,-3.23
2018-03-21T06:58:15.754Z,-3.18
2018-03-21T06:59:15.853Z,-3.20
2018-03-21T07:00:16.002Z,-3.09
2018-03-21T07:01:16.150Z,-3.07
2018-03-21T07:02:16.294Z,-3.06
2018-03-21T07:03:16.449Z,-3.00
2018-03-21T07:04:16.606Z,-2.99
2018-03-21T07:05:16.748Z,-2.89
2018-03-21T07:06:16.896Z,-2.89
2018-03-21T07:07:17.047Z,-2.79
2018-03-21T07:08:17.196Z,-2.71
2018-03-21T07:09:17.348Z,-2.68
2018-03-21T07:10:17.496Z,-2.63
2018-03-21T07:11:17.647Z,-2.67
2018-03-21T07:12:17.795Z,-2.64
2018-03-21T07:13:17.953Z,-2.56
2018-03-21T07:14:18.112Z,-2.61
2018-03-21T07:15:18.249Z,-2.56
2018-03-21T07:16:18.402Z,-2.46
2018-03-21T07:17:18.548Z,-2.40
2018-03-21T07:18:18.734Z,-2.34
2018-03-21T07:19:18.884Z,-2.34
2018-03-21T07:20:19.043Z,-2.34
2018-03-21T07:21:19.191Z,-2.20
2018-03-21T07:22:19.348Z,-2.21
2018-03-21T07:23:19.633Z,-2.20
2018-03-21T07:24:19.630Z,-2.26
2018-03-21T07:25:19.779Z,-2.08
2018-03-21T07:26:19.930Z,-2.08
2018-03-21T07:27:20.074Z,-2.06
2018-03-21T07:28:20.224Z,-2.00
2018-03-21T07:29:20.377Z,-1.91
2018-03-21T07:30:20.519Z,-1.98
2018-03-21T07:31:20.670Z,-1.85
2018-03-21T07:32:20.819Z,-1.80
2018-03-21T07:33:20.978Z,-1.85
2018-03-21T07:34:21.129Z,-1.80
2018-03-21T07:35:21.279Z,-1.80
2018-03-21T07:36:21.431Z,-1.82
2018-03-21T07:37:21.580Z,-1.74
2018-03-21T07:38:21.737Z,-1.66
2018-03-21T07:39:21.882Z,-1.59
2018-03-21T07:40:22.031Z,-1.54
2018-03-21T07:41:22.182Z,-1.51
2018-03-21T07:42:22.335Z,-1.55
2018-03-21T07:43:22.486Z,-1.41
2018-03-21T07:44:22.636Z,-1.45
2018-03-21T07:45:22.791Z,-1.30
2018-03-21T07:46:22.933Z,-1.16
2018-03-21T07:47:23.089Z,-1.22
2018-03-21T07:48:23.240Z,-1.33
2018-03-21T07:49:23.384Z,-1.02
2018-03-21T07:50:23.542Z,-1.01
2018-03-21T07:51:23.702Z,-1.12
2018-03-21T07:52:23.845Z,-0.95
2018-03-21T07:53:23.992Z,-0.97
2018-03-21T07:54:24.139Z,-0.92
2018-03-21T07:55:24.313Z,-0.91
2018-03-21T07:56:24.488Z,-0.89
2018-03-21T07:57:24.607Z,-0.75
2018-03-21T07:58:24.748Z,-0.72
2018-03-21T07:59:24.899Z,-0.79
2018-03-21T08:00:25.057Z,-0.61
2018-03-21T08:01:25.275Z,-0.51
2018-03-21T08:02:25.390Z,-0.46
2018-03-21T08:03:25.533Z,-0.39
2018-03-21T08:04:25.696Z,-0.37
2018-03-21T08:05:25.866Z,-0.29
2018-03-21T08:06:25.989Z,-0.26
2018-03-21T08:07:26.143Z,-0.25
2018-03-21T08:08:26.293Z,-0.19
2018-03-21T08:09:26.459Z,-0.26
2018-03-21T08:10:26.611Z,-0.15
2018-03-21T08:11:26.762Z,-0.01
2018-03-21T08:12:26.922Z,0.04
2018-03-21T08:13:27.062Z,0.08
2018-03-21T08:14:27.223Z,0.14
2018-03-21T08:15:27.362Z,0.08
2018-03-21T08:16:27.517Z,0.29
2018-03-21T08:17:27.674Z,0.15
2018-03-21T08:18:27.820Z,0.31
2018-03-21T08:19:27.971Z,0.35
2018-03-21T08:20:28.131Z,0.39
2018-03-21T08:21:28.685Z,0.53
2018-03-21T08:22:28.468Z,0.50
2018-03-21T08:23:28.686Z,0.50
2018-03-21T08:24:28.794Z,0.55
2018-03-21T08:25:28.947Z,0.62
2018-03-21T08:26:29.098Z,0.68
2018-03-21T08:27:29.250Z,0.72
2018-03-21T08:28:29.405Z,0.76
2018-03-21T08:29:29.553Z,0.83
2018-03-21T08:30:29.715Z,0.80
2018-03-21T08:31:29.855Z,0.93
2018-03-21T08:32:30.010Z,0.94
2018-03-21T08:33:30.160Z,0.98
2018-03-21T08:34:30.340Z,1.05
2018-03-21T08:35:30.474Z,1.14
2018-03-21T08:36:30.619Z,1.14
2018-03-21T08:37:30.776Z,1.18
2018-03-21T08:38:30.919Z,1.20
2018-03-21T08:39:31.071Z,1.34
2018-03-21T08:40:31.221Z,1.42
2018-03-21T08:41:31.376Z,1.45
2018-03-21T08:42:31.528Z,1.45
2018-03-21T08:43:31.748Z,1.51
2018-03-21T08:44:31.830Z,1.55
2018-03-21T08:45:31.985Z,1.50
2018-03-21T08:46:32.148Z,1.65
2018-03-21T08:47:32.307Z,1.60
2018-03-21T08:48:32.465Z,1.63
2018-03-21T08:49:32.621Z,1.65
2018-03-21T08:50:32.769Z,1.80
2018-03-21T08:51:32.920Z,1.80
2018-03-21T08:52:33.076Z,1.98
2018-03-21T08:53:33.227Z,2.02
2018-03-21T08:54:33.382Z,2.03
2018-03-21T08:55:33.540Z,2.14
2018-03-21T08:56:33.690Z,2.18
2018-03-21T08:57:33.846Z,2.28
2018-03-21T08:58:33.998Z,2.38
2018-03-21T08:59:34.148Z,2.42
2018-03-21T09:00:34.302Z,2.49
2018-03-21T09:01:34.454Z,2.57
2018-03-21T09:02:34.614Z,2.56
2018-03-21T09:03:34.770Z,2.71
2018-03-21T09:04:34.922Z,2.74
2018-03-21T09:05:35.081Z,2.77
2018-03-21T09:06:35.227Z,2.77
2018-03-21T09:07:35.391Z,2.79
2018-03-21T09:08:35.525Z,2.93
2018-03-21T09:09:35.678Z,2.99
2018-03-21T09:10:35.840Z,3.13
2018-03-21T09:11:35.980Z,3.18
2018-03-21T09:12:36.156Z,3.28
2018-03-21T09:13:36.288Z,3.31
2018-03-21T09:14:36.445Z,3.42
2018-03-21T09:15:36.599Z,3.51
2018-03-21T09:16:36.749Z,3.47
2018-03-21T09:17:36.914Z,3.61
2018-03-21T09:18:37.053Z,3.68
2018-03-21T09:19:37.206Z,3.75
2018-03-21T09:20:37.393Z,3.86
2018-03-21T09:21:37.517Z,3.91
2018-03-21T09:22:37.664Z,4.02
2018-03-21T09:23:37.822Z,4.04
2018-03-21T09:24:37.983Z,4.14
2018-03-21T09:25:38.126Z,4.12
2018-03-21T09:26:38.272Z,4.20
2018-03-21T09:27:38.436Z,4.11
2018-03-21T09:28:38.590Z,4.08
2018-03-21T09:29:38.744Z,4.15
2018-03-21T09:30:38.899Z,4.26
2018-03-21T09:31:39.057Z,4.36
2018-03-21T09:32:39.203Z,4.32
2018-03-21T09:33:39.356Z,4.36
2018-03-21T09:34:39.510Z,4.54
2018-03-21T09:35:39.664Z,4.60
2018-03-21T09:36:39.819Z,4.67
2018-03-21T09:37:39.973Z,4.72
2018-03-21T09:38:40.129Z,4.77
2018-03-21T09:39:40.279Z,4.72
2018-03-21T09:40:40.436Z,4.80
2018-03-21T09:41:40.584Z,4.84
2018-03-21T09:42:40.744Z,4.85
2018-03-21T09:43:40.887Z,4.88
2018-03-21T09:44:41.044Z,4.99
2018-03-21T09:45:41.204Z,5.07
2018-03-21T09:46:41.355Z,5.13
2018-03-21T09:47:41.503Z,5.24
2018-03-21T09:48:41.710Z,5.17
2018-03-21T09:49:41.826Z,5.22
2018-03-21T09:50:41.962Z,5.35
2018-03-21T09:51:42.120Z,5.43
2018-03-21T09:52:42.277Z,5.31
2018-03-21T09:53:42.424Z,5.40
2018-03-21T09:54:42.581Z,5.42
2018-03-21T09:55:42.737Z,5.48
2018-03-21T09:56:42.888Z,5.53
2018-03-21T09:57:43.040Z,5.51
2018-03-21T09:58:43.204Z,5.61
2018-03-21T09:59:43.363Z,5.65
2018-03-21T10:00:43.606Z,5.65
2018-03-21T10:01:43.677Z,5.78
2018-03-21T10:02:43.835Z,5.78
2018-03-21T10:03:43.989Z,5.83
2018-03-21T10:04:44.141Z,5.90
2018-03-21T10:05:44.296Z,5.97
2018-03-21T10:06:44.451Z,5.97
2018-03-21T10:07:44.606Z,6.03
2018-03-21T10:08:44.812Z,6.04
2018-03-21T10:09:44.908Z,6.17
2018-03-21T10:10:45.068Z,6.21
2018-03-21T10:11:45.248Z,6.38
2018-03-21T10:12:45.362Z,6.34
2018-03-21T10:13:45.517Z,6.46
2018-03-21T10:14:45.677Z,6.55
2018-03-21T10:15:45.834Z,6.59
2018-03-21T10:16:45.995Z,6.70
2018-03-21T10:17:46.165Z,6.67
2018-03-21T10:18:46.303Z,6.69
2018-03-21T10:19:46.455Z,6.70
2018-03-21T10:20:46.611Z,6.76
2018-03-21T10:21:46.768Z,6.94
2018-03-21T10:22:46.922Z,6.97
2018-03-21T10:23:47.126Z,7.05
2018-03-21T10:24:47.233Z,7.03
2018-03-21T10:25:47.408Z,7.24
2018-03-21T10:26:47.566Z,7.25
2018-03-21T10:27:47.722Z,7.27
2018-03-21T10:28:47.879Z,7.42
2018-03-21T10:29:48.039Z,7.43
2018-03-21T10:30:48.196Z,7.50
2018-03-21T10:31:48.358Z,7.55
2018-03-21T10:32:48.517Z,7.49
2018-03-21T10:33:48.687Z,7.55
2018-03-21T10:34:48.842Z,7.53
2018-03-21T10:35:49.013Z,7.71
2018-03-21T10:36:49.149Z,7.80
2018-03-21T10:37:49.308Z,7.74
2018-03-21T10:38:49.457Z,7.63
2018-03-21T10:39:49.615Z,7.42
2018-03-21T10:40:49.787Z,7.42
2018-03-21T10:41:49.942Z,7.46
2018-03-21T10:42:50.092Z,7.43
2018-03-21T10:43:50.251Z,7.53
2018-03-21T10:44:50.409Z,7.48
2018-03-21T10:45:50.565Z,7.37
2018-03-21T10:46:50.723Z,7.37
2018-03-21T10:47:50.900Z,7.37
2018-03-21T10:48:51.071Z,7.34
2018-03-21T10:49:51.215Z,7.34
2018-03-21T10:50:51.373Z,7.17
2018-03-21T10:51:51.535Z,7.20
2018-03-21T10:52:51.684Z,7.07
2018-03-21T10:53:51.844Z,7.09
2018-03-21T10:54:52.003Z,7.21
2018-03-21T10:55:52.162Z,7.42
2018-03-21T10:56:52.330Z,7.40
2018-03-21T10:57:52.900Z,7.53
2018-03-21T10:58:52.666Z,7.63
2018-03-21T10:59:52.792Z,7.82
2018-03-21T11:00:52.972Z,7.86
2018-03-21T11:01:53.128Z,7.87
2018-03-21T11:02:53.288Z,7.77
2018-03-21T11:03:53.484Z,7.82
2018-03-21T11:04:53.637Z,7.90
2018-03-21T11:05:53.820Z,7.83
2018-03-21T11:06:53.977Z,7.90
2018-03-21T11:07:54.141Z,7.97
2018-03-21T11:08:54.301Z,7.90
2018-03-21T11:09:54.454Z,7.89
2018-03-21T11:10:54.613Z,7.87
2018-03-21T11:11:54.808Z,7.83
2018-03-21T11:12:54.932Z,7.79
2018-03-21T11:14:10.012Z,7.90
2018-03-21T11:14:55.281Z,8.02
2018-03-21T11:15:55.435Z,8.02
2018-03-21T11:16:55.594Z,8.08
2018-03-21T11:17:55.752Z,8.04
2018-03-21T11:18:55.908Z,8.19
2018-03-21T11:19:56.083Z,8.23
2018-03-21T11:20:56.229Z,8.18
2018-03-21T11:21:56.394Z,8.15
2018-03-21T11:22:56.545Z,8.29
2018-03-21T11:23:56.716Z,8.36
2018-03-21T11:24:56.875Z,8.44
2018-03-21T11:25:57.032Z,8.43
2018-03-21T11:26:57.201Z,8.55
2018-03-21T11:27:57.359Z,8.53
2018-03-21T11:28:57.519Z,8.55
2018-03-21T11:29:57.686Z,8.48
2018-03-21T11:30:57.836Z,8.53
2018-03-21T11:31:58.008Z,8.38
2018-03-21T11:32:58.184Z,8.44
2018-03-21T11:33:58.322Z,8.52
2018-03-21T11:34:58.493Z,8.56
2018-03-21T11:35:58.628Z,8.58
2018-03-21T11:36:58.795Z,8.58
2018-03-21T11:37:58.939Z,8.52
2018-03-21T11:38:59.135Z,8.59
2018-03-21T11:39:59.254Z,8.52
2018-03-21T11:40:59.413Z,8.61
2018-03-21T11:41:59.571Z,8.65
2018-03-21T11:42:59.729Z,8.66
2018-03-21T11:43:59.887Z,8.65
2018-03-21T11:45:00.051Z,8.77
2018-03-21T11:46:00.203Z,8.66
2018-03-21T11:47:00.362Z,8.70
2018-03-21T11:48:00.519Z,8.62
2018-03-21T11:49:00.690Z,8.74
2018-03-21T11:50:00.863Z,8.83
2018-03-21T11:51:01.014Z,8.80
2018-03-21T11:52:01.168Z,9.04
2018-03-21T11:53:01.339Z,9.10
2018-03-21T14:31:45.234Z,17.28
2018-03-21T14:32:45.391Z,17.37
2018-03-21T14:33:45.553Z,17.08
2018-03-21T14:34:45.726Z,16.78
2018-03-21T14:35:46.038Z,16.38
2018-03-21T14:36:46.077Z,15.90
2018-03-21T14:37:46.260Z,15.76
2018-03-21T14:38:46.431Z,15.56
2018-03-21T14:39:46.601Z,15.38
2018-03-21T14:40:46.774Z,15.21
2018-03-21T14:41:46.941Z,15.35
2018-03-21T14:42:47.109Z,15.44
2018-03-21T14:43:47.282Z,15.16
2018-03-21T14:44:47.452Z,15.01
2018-03-21T14:45:47.623Z,14.92
2018-03-21T14:46:47.793Z,14.15
2018-03-21T14:47:47.966Z,13.73
2018-03-21T14:48:48.145Z,13.46
2018-03-21T14:49:48.347Z,13.36
2018-03-21T14:50:48.481Z,13.23
2018-03-21T14:51:48.645Z,13.23
2018-03-21T14:52:48.836Z,13.22
2018-03-21T14:53:49.119Z,13.10
2018-03-21T14:54:49.383Z,13.03
2018-03-21T14:55:49.326Z,12.86
2018-03-21T14:56:49.499Z,12.87
2018-03-21T14:57:49.675Z,13.00
2018-03-21T14:58:49.842Z,12.64
2018-03-21T14:59:50.012Z,12.78
2018-03-21T15:00:50.188Z,12.65
2018-03-21T15:01:50.363Z,12.64
2018-03-21T15:02:50.541Z,12.62
2018-03-21T15:03:50.711Z,12.45
2018-03-21T15:04:50.883Z,11.70
2018-03-21T15:05:51.049Z,12.05
2018-03-21T15:06:51.220Z,12.05
2018-03-21T15:07:51.396Z,12.24
2018-03-21T15:08:51.569Z,12.21
2018-03-21T15:09:51.737Z,11.70
2018-03-21T15:10:51.921Z,11.24
2018-03-21T15:11:52.091Z,11.35
2018-03-21T15:12:52.265Z,11.44
2018-03-21T15:13:52.452Z,11.03
2018-03-21T15:14:52.619Z,10.70
2018-03-21T15:15:52.789Z,10.74
2018-03-21T15:16:52.959Z,10.41
2018-03-21T15:17:53.127Z,9.99
2018-03-21T15:18:53.305Z,10.32
2018-03-21T15:19:53.471Z,10.01
2018-03-21T15:20:53.646Z,10.23
2018-03-21T15:21:53.822Z,10.04
2018-03-21T15:22:54.005Z,9.90
2018-03-21T15:23:54.169Z,9.90
2018-03-21T15:24:54.344Z,10.12
2018-03-21T15:25:54.517Z,10.22
2018-03-21T15:26:54.700Z,9.75
2018-03-21T15:27:54.864Z,9.72
2018-03-21T15:28:55.031Z,9.68
2018-03-21T15:29:55.212Z,9.81
2018-03-21T15:30:55.408Z,10.02
2018-03-21T15:31:55.565Z,9.81
2018-03-21T15:32:55.728Z,9.68
2018-03-21T15:33:55.899Z,9.51
2018-03-21T15:34:56.064Z,9.56
2018-03-21T15:35:56.819Z,9.65
2018-03-21T15:36:56.373Z,9.36
2018-03-21T15:37:56.541Z,9.24
2018-03-21T15:38:56.714Z,9.23
2018-03-21T15:39:56.886Z,9.17